createdAt,value
2023-02-04T14:09:03.020Z,7.50
2023-02-04T14:15:13.479Z,12.90
2023-02-04T14:17:46.302Z,13.70
2023-02-04T14:20:18.146Z,9.80
2023-02-04T14:22:51.461Z,8.10
2023-02-04T14:25:22.351Z,7.30
2023-02-04T14:27:52.979Z,9.30
2023-02-04T14:30:28.049Z,9.80
2023-02-04T14:32:59.429Z,10.40
2023-02-04T14:35:33.277Z,8.80
2023-02-04T14:38:04.005Z,10.30
2023-02-04T14:40:37.672Z,7.50
2023-02-04T14:43:11.608Z,6.60
2023-02-04T14:45:46.855Z,7.80
2023-02-04T14:48:21.444Z,7.50
2023-02-04T14:50:52.469Z,9.70
2023-02-04T14:53:23.109Z,9.00
2023-02-04T14:55:56.153Z,8.90
2023-02-04T14:58:27.933Z,9.60
2023-02-04T15:01:01.556Z,9.70
2023-02-04T15:03:36.362Z,5.60
2023-02-04T15:06:07.552Z,7.10
2023-02-04T15:08:46.564Z,4.10
2023-02-04T15:11:17.064Z,6.60
2023-02-04T15:13:47.904Z,5.80
2023-02-04T15:16:20.940Z,5.50
2023-02-04T15:18:51.604Z,8.10
2023-02-04T15:21:22.078Z,6.50
2023-02-04T15:23:54.085Z,6.00
2023-02-04T15:26:27.109Z,6.50
2023-02-04T15:28:57.777Z,6.40
2023-02-04T15:31:32.486Z,6.30
2023-02-04T15:34:05.741Z,9.50
2023-02-04T15:36:37.251Z,9.00
2023-02-04T15:39:08.142Z,9.00
2023-02-04T15:41:38.637Z,9.00
2023-02-04T15:44:09.534Z,14.20
2023-02-04T15:46:43.475Z,12.20
2023-02-04T15:53:47.958Z,12.00
2023-02-04T15:56:23.320Z,13.60
2023-02-04T15:58:55.258Z,10.40
2023-02-04T16:01:28.704Z,10.20
2023-02-04T16:04:01.210Z,11.20
2023-02-04T16:06:35.000Z,9.10
2023-02-04T16:09:05.726Z,13.10
2023-02-04T16:11:38.142Z,7.40
2023-02-04T16:14:10.820Z,6.50
2023-02-04T16:16:41.304Z,7.50
2023-02-04T16:19:12.319Z,8.90
2023-02-04T16:21:46.435Z,8.80
2023-02-04T16:24:19.028Z,9.40
2023-02-04T16:26:51.876Z,8.60
2023-02-04T16:29:23.363Z,9.90
2023-02-04T16:31:58.169Z,10.40
2023-02-04T16:34:31.687Z,10.70
2023-02-04T16:37:03.629Z,9.20
2023-02-04T16:39:34.199Z,9.40
2023-02-04T16:42:09.267Z,7.90
2023-02-04T16:44:41.238Z,9.80
2023-02-04T16:47:14.608Z,10.40
2023-02-04T16:49:46.764Z,8.20
2023-02-04T16:52:17.633Z,11.90
2023-02-04T16:54:48.382Z,9.10
2023-02-04T16:57:19.768Z,8.40
2023-02-04T16:59:51.064Z,9.20
2023-02-04T17:02:23.176Z,9.00
2023-02-04T17:04:56.640Z,9.60
2023-02-04T17:12:00.168Z,10.90
2023-02-04T17:14:30.710Z,10.00
2023-02-04T17:17:05.314Z,11.00
2023-02-04T17:19:37.792Z,9.70
2023-02-04T17:22:09.955Z,12.60
2023-02-04T17:24:44.011Z,10.30
2023-02-04T17:27:15.117Z,10.60
2023-02-04T17:29:46.074Z,9.40
2023-02-04T17:32:20.215Z,8.10
2023-02-04T17:34:51.180Z,6.20
2023-02-04T17:37:22.176Z,6.30
2023-02-04T17:39:53.462Z,6.20
2023-02-04T17:42:28.299Z,5.40
2023-02-04T17:45:00.041Z,5.80
2023-02-04T17:47:36.760Z,6.90
2023-02-04T17:50:12.152Z,7.00
2023-02-04T17:52:43.231Z,8.80
2023-02-04T17:55:31.957Z,7.00
2023-02-04T17:58:16.476Z,8.70
2023-02-04T18:00:49.936Z,7.00
2023-02-04T18:03:26.255Z,8.10
2023-02-04T18:06:00.382Z,6.70
2023-02-04T18:08:42.240Z,8.50
2023-02-04T18:11:28.852Z,9.90
2023-02-04T18:14:09.952Z,8.00
2023-02-04T18:16:42.204Z,9.60
2023-02-04T18:19:28.342Z,8.10
2023-02-04T18:22:01.233Z,9.30
2023-02-04T18:29:23.904Z,9.30
2023-02-04T18:31:59.867Z,8.40
2023-02-04T18:34:44.831Z,7.90
2023-02-04T18:37:37.953Z,11.00
2023-02-04T18:40:12.889Z,10.90
2023-02-04T18:42:48.424Z,14.10
2023-02-04T18:45:37.558Z,13.00
2023-02-04T18:48:22.474Z,13.60
2023-02-04T18:50:57.684Z,16.70
2023-02-04T18:53:30.901Z,15.30
2023-02-04T18:56:05.873Z,14.90
2023-02-04T18:58:44.762Z,13.50
2023-02-04T19:01:30.256Z,15.00
2023-02-04T19:04:06.458Z,12.30
2023-02-04T19:06:52.669Z,13.90
2023-02-04T19:09:33.183Z,18.40
2023-02-04T19:12:23.034Z,14.60
2023-02-04T19:14:57.009Z,18.00
2023-02-04T19:17:31.664Z,12.90
2023-02-04T19:20:11.928Z,9.20
2023-02-04T19:22:50.359Z,10.70
2023-02-04T19:25:33.951Z,11.40
2023-02-04T19:28:37.679Z,19.30
2023-02-04T19:31:11.541Z,11.90
2023-02-04T19:33:47.249Z,15.00
2023-02-04T19:36:42.341Z,18.90
2023-02-04T19:39:39.009Z,16.60
2023-02-04T19:42:35.817Z,14.10
2023-02-04T19:45:22.894Z,11.90
2023-02-04T19:47:56.720Z,18.90
2023-02-04T19:50:34.811Z,15.60
2023-02-04T19:53:20.906Z,10.20
2023-02-04T19:55:55.906Z,11.80
2023-02-04T19:58:44.117Z,14.50
2023-02-04T20:01:24.963Z,10.70
2023-02-04T20:03:57.214Z,10.20
2023-02-04T20:06:39.277Z,12.90
2023-02-04T20:09:30.656Z,15.30
2023-02-04T20:12:07.537Z,14.60
2023-02-04T20:14:45.019Z,15.40
2023-02-04T20:17:47.609Z,15.90
2023-02-04T20:20:32.421Z,26.40
2023-02-04T20:23:18.857Z,22.00
2023-02-04T20:25:51.366Z,24.50
2023-02-04T20:28:30.706Z,26.60
2023-02-04T20:31:04.257Z,20.50
2023-02-04T20:33:51.013Z,16.30
2023-02-04T20:36:38.965Z,16.30
2023-02-04T20:39:12.225Z,17.80
2023-02-04T20:41:47.041Z,17.70
2023-02-04T20:44:23.506Z,13.50
2023-02-04T20:47:04.815Z,12.00
2023-02-04T20:49:43.435Z,11.10
2023-02-04T20:52:53.550Z,11.50
2023-02-04T20:55:30.774Z,18.80
2023-02-04T20:58:16.799Z,21.40
2023-02-04T21:00:54.977Z,20.70
2023-02-04T21:03:33.047Z,21.90
2023-02-04T21:06:29.468Z,21.30
2023-02-04T21:09:10.152Z,19.10
2023-02-04T21:11:46.968Z,22.50
2023-02-04T21:14:20.419Z,20.50
2023-02-04T21:16:59.812Z,21.70
2023-02-04T21:19:37.975Z,21.30
2023-02-04T21:22:15.335Z,18.90
2023-02-04T21:24:50.406Z,20.90
2023-02-04T21:27:25.643Z,18.00
2023-02-04T21:30:01.267Z,17.70
2023-02-04T21:32:34.949Z,17.00
2023-02-04T21:35:09.268Z,16.60
2023-02-04T21:37:49.337Z,17.60
2023-02-04T21:40:25.018Z,18.50
2023-02-04T21:43:04.251Z,15.60
2023-02-04T21:45:41.418Z,16.90
2023-02-04T21:48:15.781Z,20.70
2023-02-04T21:50:50.150Z,15.40
2023-02-04T21:53:26.700Z,18.00
2023-02-04T21:56:00.811Z,17.10
2023-02-04T21:58:34.952Z,18.00
2023-02-04T22:01:10.842Z,15.70
2023-02-04T22:03:44.996Z,19.20
2023-02-04T22:06:20.757Z,19.20
2023-02-04T22:17:20.598Z,21.90
2023-02-04T22:19:51.460Z,20.60
2023-02-04T22:22:22.309Z,19.50
2023-02-04T22:24:55.104Z,20.60
2023-02-04T22:27:28.915Z,23.60
2023-02-04T22:30:03.632Z,35.00
2023-02-04T22:32:37.880Z,27.90
2023-02-04T22:35:10.483Z,28.40
2023-02-04T22:37:42.461Z,31.00
2023-02-04T22:40:14.856Z,33.20
2023-02-04T22:42:45.354Z,32.80
2023-02-04T22:45:15.765Z,32.20
2023-02-04T22:47:46.406Z,34.10
2023-02-04T22:50:18.441Z,33.20
2023-02-04T22:52:48.836Z,29.40
2023-02-04T22:55:22.618Z,21.50
2023-02-04T22:57:53.012Z,18.50
2023-02-04T23:00:23.833Z,16.70
2023-02-04T23:02:56.230Z,18.40
2023-02-04T23:05:27.305Z,22.90
2023-02-04T23:07:59.220Z,20.40
2023-02-04T23:10:32.130Z,18.60
2023-02-04T23:13:02.752Z,18.10
2023-02-04T23:15:34.969Z,21.90
2023-02-04T23:18:06.717Z,18.50
2023-02-04T23:20:38.164Z,20.70
2023-02-04T23:23:17.856Z,18.30
2023-02-04T23:25:51.290Z,16.60
2023-02-04T23:28:23.018Z,19.60
2023-02-04T23:30:54.433Z,18.00
2023-02-04T23:33:25.287Z,20.60
2023-02-04T23:35:57.938Z,22.20
2023-02-04T23:38:28.674Z,25.30
2023-02-04T23:41:00.693Z,24.90
2023-02-04T23:43:31.289Z,26.50
2023-02-04T23:46:02.268Z,25.60
2023-02-04T23:48:33.046Z,25.70
2023-02-04T23:51:03.500Z,26.90
2023-02-04T23:53:33.852Z,29.90
2023-02-04T23:56:05.632Z,26.10
2023-02-04T23:58:36.282Z,25.00
